首页
METAR-TAF:

METAR-TAF

机场 :

直布羅陀機場

直布罗陀, 直布罗陀

纬度: 36-09N, 经度: 005-21W, 海拔: 5米

当前天气观测

该预报发布于56分钟前的16:50 UTC
风速11节,风向
温度 23°C
湿度 73%
气压 1014 hPa
能见度10公里或以上

METAR: LXGB 231650Z AUTO 08011KT 9999 // NCD 23/18 Q1014

时间: 19:46 (17:46 UTC)

预报

该预报发布于4小时和29分钟前的13:17 UTC
预报有效从23日的 15点(UTC)到 23日的 22点(UTC)
风速10节,风向
能见度10公里或以上
少量云层高于2600英尺

TAF: LXGB 231317Z 2315/2322 09010KT 9999 FEW026

超过4000个机场的气象观测和天气预报(METAR&TAF报告)。

可查询的气象台以黄色和红色小点在地图上表示。

将鼠标移到小点上方,可查看气象台名称。

然后点击查看天气观测和预报。

如需切换地图:点击带黑十字的绿色按钮放大地图;点击带横线的绿色按钮缩小地图;或者点击绿色箭头查看邻近地区的地图。


METAR-TAF: